首页
METAR-TAF:

METAR-TAF

机场 :

图兹拉国际机场

图兹拉, 波斯尼亚和黑塞哥维那

纬度: 44-33N, 经度: 018-42E, 海拔: 306米

当前天气观测

该预报发布于11小时和7分钟前的13:00 UTC
风速8节,风向西转西北,在西之间变化
温度 17°C
湿度 52%
气压 1015 hPa
能见度10公里或以上
多云层高于4000英尺

METAR: LQTZ 311300Z 30008KT 260V360 9999 BKN040 17/07 Q1015

时间: 02:07 (00:07 UTC)

预报

该预报发布于13小时和7分钟前的11:00 UTC
预报有效从31日的 12点(UTC)到 01日的 12点(UTC)
风速7节,风向西
能见度10公里或以上
多云层高于4000英尺
几率 30% :
短暂存在
从 31日的 13点(UTC)到 31日的 18点(UTC)
风速15节,风向多变
能見度: 4000
少量云层高于3000英尺, 塔状积云.
散云层高于4000英尺
阵雨
短暂存在
从 31日的 23点(UTC)到 01日的 12点(UTC)
风速12节,风向北转西北
能見度: 3000
多云层高于1500英尺
阴天层高于2500英尺
几率 40% :
短暂存在
从 01日的 09点(UTC)到 01日的 12点(UTC)
风速15节,风向多变
能見度: 3000
少量云层高于2700英尺, 塔状积云.
多云层高于4000英尺
阵雨

TAF: LQTZ 311100Z 3112/0112 27007KT 9999 BKN040 TX20/3113Z TN06/0103Z PROB30 TEMPO 3113/3118 VRB15KT 4000 SHRA FEW030TCU SCT040 TEMPO 3123/0112 33012KT 3000 RA BKN015 OVC025 PROB40 TEMPO 0109/0112 VRB15KT 3000 SHRA FEW027TCU BKN040

超过4000个机场的气象观测和天气预报(METAR&TAF报告)。

可查询的气象台以黄色和红色小点在地图上表示。

将鼠标移到小点上方,可查看气象台名称。

然后点击查看天气观测和预报。

如需切换地图:点击带黑十字的绿色按钮放大地图;点击带横线的绿色按钮缩小地图;或者点击绿色箭头查看邻近地区的地图。


METAR-TAF: